Terminal Aerodrome Forecast
Issued by NWS

Home | Current Version | Previous Version | Text Only | Print | Product List | Glossary On
Versions: 1 2 3 4 5 6 7 8 9 10 11 12 13 14 15 16
787
FTUS46 KPDT 261736
TAFBDN
TAF
KBDN 261736Z 2618/2718 22012KT P6SM BKN060
     FM262200 20012KT P6SM VCSH OVC040
      TEMPO 2622/2702 3SM -SHRASN BR OVC035
     FM270300 18009KT P6SM VCSH BKN050 OVC080=

USA.gov is the U.S. government's official web portal to all federal, state and local government web resources and services.